createdAt,value
2023-02-03T00:00:04.355Z,20.60
2023-02-03T00:00:45.938Z,20.52
2023-02-03T00:01:18.136Z,19.75
2023-02-03T00:01:50.331Z,20.17
2023-02-03T00:02:25.002Z,24.83
2023-02-03T00:02:57.152Z,24.15
2023-02-03T00:03:29.297Z,23.80
2023-02-03T00:04:04.167Z,19.98
2023-02-03T00:04:36.349Z,22.27
2023-02-03T00:05:09.410Z,25.17
2023-02-03T00:05:44.790Z,23.45
2023-02-03T00:06:17.077Z,20.50
2023-02-03T00:06:49.512Z,28.52
2023-02-03T00:07:24.202Z,19.05
2023-02-03T00:07:56.558Z,21.67
2023-02-03T00:08:28.737Z,24.00
2023-02-03T00:09:03.544Z,22.00
2023-02-03T00:09:35.688Z,22.33
2023-02-03T00:10:08.924Z,22.35
2023-02-03T00:10:43.705Z,24.38
2023-02-03T00:11:15.997Z,21.90
2023-02-03T00:11:50.799Z,23.13
2023-02-03T00:12:25.611Z,21.75
2023-02-03T00:12:58.301Z,20.23
2023-02-03T00:13:30.589Z,23.05
2023-02-03T00:14:08.024Z,24.48
2023-02-03T00:14:40.214Z,40.17
2023-02-03T00:15:12.492Z,29.35
2023-02-03T00:15:47.305Z,20.13
2023-02-03T00:16:19.519Z,22.35
2023-02-03T00:16:51.668Z,19.35
2023-02-03T00:17:26.428Z,26.75
2023-02-03T00:17:58.681Z,21.88
2023-02-03T00:18:30.829Z,21.77
2023-02-03T00:19:06.057Z,20.90
2023-02-03T00:19:38.213Z,27.60
2023-02-03T00:20:15.089Z,22.20
2023-02-03T00:20:49.899Z,21.02
2023-02-03T00:21:22.112Z,20.83
2023-02-03T00:21:54.242Z,46.10
2023-02-03T00:22:28.898Z,20.55
2023-02-03T00:23:05.528Z,22.25
2023-02-03T00:23:37.756Z,24.65
2023-02-03T00:24:12.449Z,19.88
2023-02-03T00:24:45.763Z,22.38
2023-02-03T00:25:18.532Z,18.05
2023-02-03T00:25:53.858Z,22.52
2023-02-03T00:26:28.659Z,21.65
2023-02-03T00:27:04.882Z,21.75
2023-02-03T00:27:39.576Z,24.92
2023-02-03T00:28:11.955Z,18.10
2023-02-03T00:28:44.660Z,22.73
2023-02-03T00:29:21.650Z,19.95
2023-02-03T00:29:53.860Z,24.58
2023-02-03T00:30:26.371Z,24.15
2023-02-03T00:31:01.370Z,22.10
2023-02-03T00:31:33.964Z,32.50
2023-02-03T00:32:06.253Z,21.25
2023-02-03T00:32:41.071Z,28.63
2023-02-03T00:33:13.158Z,21.13
2023-02-03T00:33:46.536Z,32.08
2023-02-03T00:34:21.241Z,51.22
2023-02-03T00:34:53.415Z,23.92
2023-02-03T00:35:25.508Z,31.23
2023-02-03T00:36:00.186Z,49.00
2023-02-03T00:36:32.567Z,40.22
2023-02-03T00:37:04.852Z,21.63
2023-02-03T00:37:39.598Z,25.70
2023-02-03T00:38:12.518Z,19.45
2023-02-03T00:38:47.633Z,23.63
2023-02-03T00:39:22.309Z,18.80
2023-02-03T00:39:54.380Z,24.33
2023-02-03T00:40:27.765Z,26.15
2023-02-03T00:41:03.084Z,23.98
2023-02-03T00:41:35.210Z,24.40
2023-02-03T00:42:12.656Z,22.02
2023-02-03T00:42:44.766Z,20.80
2023-02-03T00:43:16.954Z,21.30
2023-02-03T00:43:51.862Z,21.17
2023-02-03T00:44:24.197Z,95.95
2023-02-03T00:44:56.662Z,21.50
2023-02-03T00:45:28.779Z,26.85
2023-02-03T00:46:04.391Z,28.77
2023-02-03T00:46:36.669Z,21.05
2023-02-03T00:47:09.025Z,19.00
2023-02-03T00:47:47.281Z,25.67
2023-02-03T00:48:19.853Z,20.85
2023-02-03T00:48:52.020Z,24.10
2023-02-03T00:49:26.864Z,21.70
2023-02-03T00:49:59.010Z,22.02
2023-02-03T00:50:31.069Z,23.80
2023-02-03T00:51:05.794Z,21.63
2023-02-03T00:51:38.008Z,26.60
2023-02-03T00:52:10.198Z,25.08
2023-02-03T00:52:46.218Z,20.63
2023-02-03T00:53:18.394Z,23.23
2023-02-03T00:53:53.499Z,24.05
2023-02-03T00:54:25.781Z,25.45
2023-02-03T00:55:06.489Z,23.67
2023-02-03T00:55:38.615Z,22.98
2023-02-03T00:56:12.901Z,26.15
2023-02-03T00:56:47.607Z,27.17
2023-02-03T00:57:22.495Z,23.58
2023-02-03T00:57:54.609Z,26.02
2023-02-03T00:58:29.357Z,24.00
2023-02-03T00:59:04.466Z,26.95
2023-02-03T00:59:36.759Z,26.13
2023-02-03T01:00:13.110Z,21.10
2023-02-03T01:00:45.280Z,27.23
2023-02-03T01:01:17.776Z,20.98
2023-02-03T01:01:52.605Z,23.42
2023-02-03T01:02:25.085Z,22.77
2023-02-03T01:02:57.925Z,23.83
2023-02-03T01:03:32.583Z,27.73
2023-02-03T01:04:06.112Z,24.75
2023-02-03T01:04:39.387Z,28.30
2023-02-03T01:05:14.102Z,25.35
2023-02-03T01:05:47.441Z,24.02
2023-02-03T01:06:21.021Z,27.00
2023-02-03T01:06:57.660Z,24.52
2023-02-03T01:07:31.895Z,26.58
2023-02-03T01:08:04.989Z,25.73
2023-02-03T01:08:39.844Z,27.55
2023-02-03T01:09:11.988Z,26.05
2023-02-03T01:09:44.109Z,33.00
2023-02-03T01:10:19.360Z,26.67
2023-02-03T01:10:51.453Z,21.95
2023-02-03T01:11:29.439Z,22.70
2023-02-03T01:12:04.108Z,27.75
2023-02-03T01:12:38.922Z,27.33
2023-02-03T01:13:16.229Z,24.25
2023-02-03T01:13:51.444Z,21.05
2023-02-03T01:14:23.705Z,29.20
2023-02-03T01:14:55.834Z,20.02
2023-02-03T01:15:30.579Z,22.77
2023-02-03T01:16:03.377Z,23.67
2023-02-03T01:16:38.258Z,23.45
2023-02-03T01:17:13.093Z,20.48
2023-02-03T01:17:45.249Z,21.00
2023-02-03T01:18:17.391Z,22.77
2023-02-03T01:18:53.214Z,21.60
2023-02-03T01:19:25.422Z,22.60
2023-02-03T01:19:58.003Z,26.42
2023-02-03T01:20:32.695Z,22.83
2023-02-03T01:21:08.933Z,21.13
2023-02-03T01:21:41.078Z,40.08
2023-02-03T01:22:15.753Z,21.55
2023-02-03T01:22:48.499Z,19.92
2023-02-03T01:23:20.607Z,24.13
2023-02-03T01:23:55.941Z,19.23
2023-02-03T01:24:29.858Z,21.08
2023-02-03T01:25:01.926Z,23.27
2023-02-03T01:25:38.006Z,26.20
2023-02-03T01:26:12.222Z,21.13
2023-02-03T01:26:44.666Z,23.70
2023-02-03T01:27:19.458Z,30.63
2023-02-03T01:27:54.216Z,25.35
2023-02-03T01:28:26.427Z,28.35
2023-02-03T01:29:02.833Z,22.67
2023-02-03T01:29:35.222Z,26.75
2023-02-03T01:30:08.413Z,25.10
2023-02-03T01:30:43.226Z,28.25
2023-02-03T01:31:17.657Z,19.38
2023-02-03T01:31:52.639Z,19.52
2023-02-03T01:32:24.883Z,20.77
2023-02-03T01:32:57.502Z,18.55
2023-02-03T01:33:33.518Z,23.45
2023-02-03T01:34:06.325Z,19.70
2023-02-03T01:34:39.785Z,22.55
2023-02-03T01:35:23.394Z,22.00
2023-02-03T01:35:55.456Z,18.35
2023-02-03T01:36:30.774Z,23.30
2023-02-03T01:37:08.417Z,26.20
2023-02-03T01:37:40.531Z,22.55
2023-02-03T01:38:12.728Z,20.40
2023-02-03T01:38:45.285Z,26.70
2023-02-03T01:39:23.211Z,21.27
2023-02-03T01:39:55.592Z,18.70
2023-02-03T01:40:28.105Z,20.42
2023-02-03T01:41:00.469Z,21.38
2023-02-03T01:41:37.772Z,28.05
2023-02-03T01:42:13.345Z,21.00
2023-02-03T01:42:45.530Z,30.05
2023-02-03T01:43:35.121Z,62.97
2023-02-03T01:44:36.985Z,28.90
2023-02-03T01:45:13.838Z,27.42
2023-02-03T01:45:46.627Z,22.63
2023-02-03T01:46:26.008Z,21.13
2023-02-03T01:47:05.760Z,22.60
2023-02-03T01:47:43.866Z,21.67
2023-02-03T01:48:20.072Z,20.35
2023-02-03T01:48:53.883Z,18.75
2023-02-03T01:49:31.717Z,20.33
2023-02-03T01:50:14.700Z,19.25
2023-02-03T01:50:49.300Z,17.52
2023-02-03T01:51:23.167Z,16.88
2023-02-03T01:51:58.353Z,33.97
2023-02-03T01:52:32.493Z,22.92
2023-02-03T01:53:13.475Z,17.00
2023-02-03T01:53:48.208Z,20.55
2023-02-03T01:54:24.951Z,18.45
2023-02-03T01:55:05.412Z,23.08
2023-02-03T01:55:41.406Z,22.67
2023-02-03T01:56:13.658Z,22.13
2023-02-03T01:56:54.885Z,22.92
2023-02-03T01:57:33.591Z,27.83
2023-02-03T01:58:14.182Z,22.35
2023-02-03T01:59:24.373Z,15.63
2023-02-03T01:59:59.483Z,26.70
2023-02-03T02:00:35.867Z,24.75
2023-02-03T02:01:11.040Z,20.48
2023-02-03T02:01:43.682Z,21.92
2023-02-03T02:02:21.709Z,18.38
2023-02-03T02:02:59.216Z,16.92
2023-02-03T02:03:37.908Z,18.38
2023-02-03T02:04:11.534Z,20.65
2023-02-03T02:04:52.775Z,26.45
2023-02-03T02:05:34.404Z,17.77
2023-02-03T02:06:10.250Z,15.85
2023-02-03T02:06:48.169Z,18.00
2023-02-03T02:07:22.812Z,17.55
2023-02-03T02:07:56.888Z,20.35
2023-02-03T02:08:30.155Z,22.35
2023-02-03T02:09:05.868Z,17.60
2023-02-03T02:09:38.105Z,23.58
2023-02-03T02:10:11.408Z,20.48
2023-02-03T02:10:46.816Z,33.08
2023-02-03T02:11:21.499Z,18.65
2023-02-03T02:11:53.629Z,21.10
2023-02-03T02:12:28.338Z,21.77
2023-02-03T02:13:02.705Z,18.75
2023-02-03T02:13:38.428Z,24.70
2023-02-03T02:14:13.705Z,18.55
2023-02-03T02:14:47.602Z,20.67
2023-02-03T02:15:26.740Z,25.15
2023-02-03T02:16:06.836Z,22.30
2023-02-03T02:16:47.655Z,22.90
2023-02-03T02:17:54.974Z,24.17
2023-02-03T02:18:44.796Z,18.48
2023-02-03T02:19:46.148Z,17.00
2023-02-03T02:20:35.946Z,17.70
2023-02-03T02:21:26.265Z,40.83
2023-02-03T02:22:10.957Z,28.48
2023-02-03T02:23:04.199Z,19.05
2023-02-03T02:24:00.669Z,22.20
2023-02-03T02:25:07.844Z,20.67
2023-02-03T02:25:57.123Z,20.35
2023-02-03T02:26:44.951Z,19.70
2023-02-03T02:27:32.267Z,16.15
2023-02-03T02:28:36.265Z,17.90
2023-02-03T02:29:28.763Z,22.55
2023-02-03T02:30:30.012Z,22.10
2023-02-03T02:31:42.345Z,29.35
2023-02-03T02:32:30.478Z,18.77
2023-02-03T02:33:10.950Z,21.10
2023-02-03T02:33:51.386Z,21.77
2023-02-03T02:34:38.161Z,22.95
2023-02-03T02:35:21.535Z,24.08
2023-02-03T02:36:08.877Z,23.25
2023-02-03T02:36:52.414Z,29.95
2023-02-03T02:37:40.573Z,19.67
2023-02-03T02:38:21.531Z,20.60
2023-02-03T02:39:03.358Z,35.25
2023-02-03T02:39:44.354Z,18.00
2023-02-03T02:40:24.080Z,23.60
2023-02-03T02:41:04.890Z,24.52
2023-02-03T02:41:44.446Z,26.30
2023-02-03T02:42:29.652Z,25.23
2023-02-03T02:43:09.841Z,19.27
2023-02-03T02:43:45.980Z,22.38
2023-02-03T02:44:26.324Z,18.42
2023-02-03T02:45:06.808Z,21.05
2023-02-03T02:45:46.812Z,23.90
2023-02-03T02:46:28.167Z,19.27
2023-02-03T02:47:10.200Z,32.33
2023-02-03T02:47:44.375Z,19.73
2023-02-03T02:48:25.863Z,23.83
2023-02-03T02:49:03.849Z,24.55
2023-02-03T02:49:43.127Z,24.15
2023-02-03T02:50:25.222Z,26.70
2023-02-03T02:51:00.089Z,29.92
2023-02-03T02:51:33.879Z,25.30
2023-02-03T02:52:11.271Z,26.55
2023-02-03T02:52:46.531Z,22.67
2023-02-03T02:53:21.450Z,21.48
2023-02-03T02:54:00.598Z,25.13
2023-02-03T02:54:39.632Z,25.42
2023-02-03T02:55:20.125Z,24.27
2023-02-03T02:55:57.190Z,25.55
2023-02-03T02:56:33.032Z,35.88
2023-02-03T02:57:06.691Z,33.45
2023-02-03T02:57:42.464Z,24.80
2023-02-03T02:58:17.571Z,33.80
2023-02-03T02:58:53.931Z,28.50
2023-02-03T02:59:26.065Z,41.10
2023-02-03T02:59:58.487Z,34.60
2023-02-03T03:00:31.558Z,29.60
2023-02-03T03:01:06.727Z,24.25
2023-02-03T03:01:41.338Z,29.02
2023-02-03T03:02:18.334Z,22.35
2023-02-03T03:02:53.473Z,22.40
2023-02-03T03:03:29.114Z,45.33
2023-02-03T03:04:05.465Z,20.55
2023-02-03T03:04:42.530Z,25.52
2023-02-03T03:05:18.000Z,27.25
2023-02-03T03:06:00.121Z,27.63
2023-02-03T03:06:41.715Z,27.50
2023-02-03T03:07:18.562Z,29.75
2023-02-03T03:07:56.284Z,35.55
2023-02-03T03:08:38.197Z,26.67
2023-02-03T03:09:13.354Z,30.77
2023-02-03T03:09:53.576Z,29.13
2023-02-03T03:10:29.576Z,23.23
2023-02-03T03:11:05.152Z,37.30
2023-02-03T03:11:44.502Z,28.10
2023-02-03T03:12:20.636Z,23.67
2023-02-03T03:12:56.792Z,22.15
2023-02-03T03:13:37.241Z,25.17
2023-02-03T03:14:13.130Z,20.50
2023-02-03T03:14:50.568Z,32.78
2023-02-03T03:15:27.580Z,25.00
2023-02-03T03:16:07.997Z,23.92
2023-02-03T03:16:47.298Z,28.58
2023-02-03T03:17:28.380Z,18.63
2023-02-03T03:18:11.070Z,24.52
2023-02-03T03:18:47.060Z,29.65
2023-02-03T03:19:27.117Z,24.55
2023-02-03T03:20:05.935Z,21.88
2023-02-03T03:20:43.017Z,45.50
2023-02-03T03:21:24.607Z,22.45
2023-02-03T03:22:01.423Z,31.75
2023-02-03T03:22:39.862Z,52.67
2023-02-03T03:23:18.906Z,25.80
2023-02-03T03:23:53.860Z,20.23
2023-02-03T03:24:31.976Z,25.38
2023-02-03T03:25:12.021Z,22.67
2023-02-03T03:26:03.440Z,24.58
2023-02-03T03:26:40.223Z,37.15
2023-02-03T03:27:16.075Z,26.35
2023-02-03T03:27:54.363Z,43.25
2023-02-03T03:28:33.450Z,43.83
2023-02-03T03:29:16.822Z,29.85
2023-02-03T03:29:53.899Z,21.95
2023-02-03T03:30:30.454Z,18.60
2023-02-03T03:31:05.679Z,32.05
2023-02-03T03:31:39.224Z,22.02
2023-02-03T03:32:11.762Z,26.27
2023-02-03T03:32:49.414Z,27.67
2023-02-03T03:33:22.978Z,19.40
2023-02-03T03:33:55.293Z,21.30
2023-02-03T03:34:30.951Z,20.58
2023-02-03T03:35:04.297Z,26.38
2023-02-03T03:35:44.012Z,51.70
2023-02-03T03:36:27.696Z,23.60
2023-02-03T03:37:11.340Z,20.02
2023-02-03T03:37:46.504Z,49.50
2023-02-03T03:38:31.977Z,20.88
2023-02-03T03:39:09.923Z,18.73
2023-02-03T03:39:51.280Z,41.90
2023-02-03T03:40:31.937Z,39.22
2023-02-03T03:41:11.398Z,39.70
2023-02-03T03:41:55.480Z,23.83
2023-02-03T03:42:35.361Z,28.20
2023-02-03T03:43:14.839Z,19.75
2023-02-03T03:43:48.721Z,23.50
2023-02-03T03:44:28.195Z,20.45
2023-02-03T03:45:06.533Z,26.08
2023-02-03T03:45:43.398Z,31.30
2023-02-03T03:46:22.237Z,28.08
2023-02-03T03:47:01.687Z,31.17
2023-02-03T03:47:39.188Z,53.55
2023-02-03T03:48:22.275Z,66.53
2023-02-03T03:48:59.246Z,30.85
2023-02-03T03:49:40.149Z,68.13
2023-02-03T03:50:18.831Z,61.15
2023-02-03T03:50:55.859Z,31.20
2023-02-03T03:51:33.907Z,19.75
2023-02-03T03:52:10.865Z,29.52
2023-02-03T03:52:45.613Z,25.40
2023-02-03T03:53:22.713Z,20.27
2023-02-03T03:53:58.563Z,20.10
2023-02-03T03:54:35.342Z,26.85
2023-02-03T03:55:15.751Z,37.47
2023-02-03T03:55:51.647Z,22.65
2023-02-03T03:56:29.005Z,25.65
2023-02-03T03:57:08.228Z,32.05
2023-02-03T03:57:44.026Z,24.63
2023-02-03T03:58:21.155Z,20.55
2023-02-03T03:58:57.047Z,24.98
2023-02-03T03:59:32.412Z,23.25
2023-02-03T04:00:09.749Z,19.17
2023-02-03T04:00:48.632Z,21.73
2023-02-03T04:01:23.197Z,25.15
2023-02-03T04:01:57.531Z,23.52
2023-02-03T04:02:35.910Z,39.65
2023-02-03T04:03:19.410Z,35.00
2023-02-03T04:03:58.127Z,28.30
2023-02-03T04:04:35.108Z,26.38
2023-02-03T04:05:13.062Z,24.08
2023-02-03T04:05:45.340Z,27.50
2023-02-03T04:06:22.157Z,21.00
2023-02-03T04:06:54.925Z,28.13
2023-02-03T04:07:40.796Z,23.42
2023-02-03T04:08:12.995Z,29.92
2023-02-03T04:08:45.109Z,24.85
2023-02-03T04:09:19.831Z,22.52
2023-02-03T04:09:51.920Z,21.00
2023-02-03T04:10:30.739Z,38.35
2023-02-03T04:11:05.438Z,25.13
2023-02-03T04:11:52.708Z,28.38
2023-02-03T04:12:25.047Z,29.10
2023-02-03T04:12:59.786Z,27.67
2023-02-03T04:13:32.027Z,37.65
2023-02-03T04:14:04.345Z,46.83
2023-02-03T04:14:40.999Z,29.33
2023-02-03T04:15:13.099Z,37.05
2023-02-03T04:15:45.509Z,40.20
2023-02-03T04:16:20.242Z,40.13
2023-02-03T04:16:52.367Z,49.97
2023-02-03T04:17:24.461Z,47.40
2023-02-03T04:18:01.625Z,45.03
2023-02-03T04:18:36.445Z,33.53
2023-02-03T04:19:08.699Z,33.35
2023-02-03T04:19:43.409Z,33.45
2023-02-03T04:20:17.595Z,34.78
2023-02-03T04:20:52.001Z,36.65
2023-02-03T04:21:24.236Z,45.05
2023-02-03T04:21:58.987Z,35.03
2023-02-03T04:22:31.148Z,39.60
2023-02-03T04:23:03.754Z,38.00
2023-02-03T04:23:36.352Z,41.05
2023-02-03T04:24:13.525Z,29.38
2023-02-03T04:24:45.673Z,29.08
2023-02-03T04:25:17.952Z,29.02
2023-02-03T04:25:52.639Z,40.33
2023-02-03T04:26:27.896Z,31.98
2023-02-03T04:27:00.153Z,49.15
2023-02-03T04:27:37.201Z,49.55
2023-02-03T04:28:12.403Z,34.33
2023-02-03T04:28:44.912Z,29.40
2023-02-03T04:29:22.398Z,30.65
2023-02-03T04:29:54.675Z,45.38
2023-02-03T04:30:27.469Z,46.25
2023-02-03T04:31:03.451Z,39.30
2023-02-03T04:31:37.130Z,46.22
2023-02-03T04:32:09.322Z,45.97
2023-02-03T04:32:44.353Z,31.80
2023-02-03T04:33:16.418Z,33.85
2023-02-03T04:33:52.352Z,42.25
2023-02-03T04:34:27.069Z,36.30
2023-02-03T04:34:59.301Z,34.03
2023-02-03T04:35:31.466Z,36.15
2023-02-03T04:36:06.505Z,40.17
2023-02-03T04:36:41.269Z,43.47
2023-02-03T04:37:13.579Z,41.33
2023-02-03T04:37:46.339Z,27.25
2023-02-03T04:38:21.161Z,41.03
2023-02-03T04:38:53.386Z,56.75
2023-02-03T04:39:25.517Z,37.28
2023-02-03T04:40:00.268Z,34.47
2023-02-03T04:40:34.878Z,48.50
2023-02-03T04:41:07.282Z,39.80
2023-02-03T04:41:42.054Z,36.47
2023-02-03T04:42:14.133Z,22.85
2023-02-03T04:42:46.201Z,61.08
2023-02-03T04:43:20.891Z,67.43
2023-02-03T04:43:53.205Z,31.95
2023-02-03T04:44:25.349Z,37.20
2023-02-03T04:45:00.027Z,37.13
2023-02-03T04:45:32.289Z,42.50
2023-02-03T04:46:07.418Z,57.20
2023-02-03T04:46:41.935Z,48.17
2023-02-03T04:47:17.144Z,38.28
2023-02-03T04:47:54.232Z,40.25
2023-02-03T04:48:27.399Z,40.10
2023-02-03T04:49:07.528Z,39.25
2023-02-03T04:49:39.713Z,39.47
2023-02-03T04:50:11.887Z,43.47
2023-02-03T04:50:46.582Z,34.92
2023-02-03T04:51:18.684Z,48.45
2023-02-03T04:51:51.126Z,40.45
2023-02-03T04:52:25.960Z,56.42
2023-02-03T04:52:58.961Z,36.10
2023-02-03T04:53:34.440Z,91.35
2023-02-03T04:54:09.431Z,53.33
2023-02-03T04:54:41.559Z,75.25
2023-02-03T04:55:13.722Z,41.42
2023-02-03T04:55:50.414Z,39.60
2023-02-03T04:56:25.733Z,65.90
2023-02-03T04:56:57.980Z,47.38
2023-02-03T04:57:34.871Z,43.95
2023-02-03T04:58:07.130Z,54.95
2023-02-03T04:58:40.394Z,33.72
2023-02-03T04:59:15.368Z,55.15
2023-02-03T04:59:47.418Z,55.75
2023-02-03T05:00:20.523Z,60.97
2023-02-03T05:00:53.116Z,43.15
2023-02-03T05:01:27.887Z,32.63
2023-02-03T05:02:03.223Z,37.97
2023-02-03T05:02:35.326Z,49.70
2023-02-03T05:03:12.243Z,42.55
2023-02-03T05:03:44.553Z,32.10
2023-02-03T05:04:19.482Z,48.58
2023-02-03T05:04:57.049Z,52.35
2023-02-03T05:05:30.604Z,41.50
2023-02-03T05:06:03.545Z,48.08
2023-02-03T05:06:41.623Z,38.50
2023-02-03T05:07:13.721Z,44.33
2023-02-03T05:07:45.875Z,51.38
2023-02-03T05:08:20.558Z,46.60
2023-02-03T05:08:52.696Z,45.30
2023-02-03T05:09:27.536Z,39.83
2023-02-03T05:09:59.715Z,43.78
2023-02-03T05:10:32.167Z,46.80
2023-02-03T05:11:07.444Z,43.97
2023-02-03T05:11:39.627Z,41.65
2023-02-03T05:12:12.043Z,45.55
2023-02-03T05:12:46.773Z,30.65
2023-02-03T05:13:18.891Z,56.92
2023-02-03T05:13:51.376Z,37.45
2023-02-03T05:14:26.136Z,43.95
2023-02-03T05:14:58.282Z,48.63
2023-02-03T05:15:30.481Z,42.65
2023-02-03T05:16:02.686Z,48.05
2023-02-03T05:16:37.506Z,44.85
2023-02-03T05:17:09.594Z,40.30
2023-02-03T05:17:43.365Z,51.33
2023-02-03T05:18:15.522Z,53.78
2023-02-03T05:18:50.350Z,41.40
2023-02-03T05:19:25.264Z,36.03
2023-02-03T05:19:57.372Z,37.35
2023-02-03T05:20:32.079Z,50.95
2023-02-03T05:21:04.662Z,47.95
2023-02-03T05:21:36.932Z,38.28
2023-02-03T05:22:11.666Z,50.05
2023-02-03T05:22:43.831Z,40.22
2023-02-03T05:23:15.967Z,39.72
2023-02-03T05:23:50.677Z,41.28
2023-02-03T05:24:22.805Z,39.13
2023-02-03T05:24:54.890Z,37.40
2023-02-03T05:25:29.683Z,75.13
2023-02-03T05:26:01.905Z,54.30
2023-02-03T05:26:34.524Z,46.35
2023-02-03T05:27:09.320Z,82.78
2023-02-03T05:27:42.301Z,64.53
2023-02-03T05:28:14.620Z,57.45
2023-02-03T05:28:50.583Z,71.93
2023-02-03T05:29:22.733Z,46.75
2023-02-03T05:29:55.256Z,54.55
2023-02-03T05:30:27.585Z,47.10
2023-02-03T05:31:03.128Z,48.40
2023-02-03T05:31:35.439Z,40.75
2023-02-03T05:32:07.749Z,48.67
2023-02-03T05:32:42.491Z,65.40
2023-02-03T05:33:14.634Z,84.55
2023-02-03T05:33:46.798Z,54.75
2023-02-03T05:34:21.542Z,114.53
2023-02-03T05:34:56.230Z,57.20
2023-02-03T05:35:28.326Z,65.43
2023-02-03T05:36:03.125Z,50.50
2023-02-03T05:36:35.249Z,36.10
2023-02-03T05:37:07.546Z,88.50
2023-02-03T05:37:42.202Z,44.83
2023-02-03T05:38:14.310Z,68.63
2023-02-03T05:38:48.974Z,62.03
2023-02-03T05:39:21.166Z,58.15
2023-02-03T05:39:53.350Z,58.58
2023-02-03T05:40:40.661Z,58.83
2023-02-03T05:41:28.292Z,68.40
2023-02-03T05:42:00.415Z,60.55
2023-02-03T05:42:35.257Z,79.00
2023-02-03T05:43:08.240Z,76.55
2023-02-03T05:43:40.402Z,102.93
2023-02-03T05:44:15.076Z,65.07
2023-02-03T05:44:47.150Z,64.38
2023-02-03T05:45:19.389Z,49.13
2023-02-03T05:45:54.200Z,47.30
2023-02-03T05:46:26.579Z,45.88
2023-02-03T05:46:59.784Z,47.90
2023-02-03T05:47:34.461Z,79.93
2023-02-03T05:48:07.552Z,81.10
2023-02-03T05:48:39.650Z,79.78
2023-02-03T05:49:14.555Z,65.88
2023-02-03T05:49:46.679Z,64.85
2023-02-03T05:50:22.913Z,86.72
2023-02-03T05:50:58.765Z,79.82
2023-02-03T05:51:30.884Z,79.90
2023-02-03T05:52:03.046Z,89.15
2023-02-03T05:52:37.688Z,63.15
2023-02-03T05:53:09.978Z,98.80
2023-02-03T05:53:42.101Z,88.57
2023-02-03T05:54:17.098Z,69.20
2023-02-03T05:54:49.175Z,98.85
2023-02-03T05:55:21.253Z,121.60
2023-02-03T05:55:56.201Z,56.05
2023-02-03T05:56:28.669Z,65.88
2023-02-03T05:57:00.870Z,63.90
2023-02-03T05:57:35.539Z,82.10
2023-02-03T05:58:07.635Z,65.28
2023-02-03T05:58:39.736Z,88.63
2023-02-03T05:59:14.550Z,64.07
2023-02-03T05:59:46.715Z,68.38
2023-02-03T06:00:21.579Z,62.22
2023-02-03T06:00:56.291Z,60.13
2023-02-03T06:01:28.392Z,76.30
2023-02-03T06:02:00.586Z,85.78
2023-02-03T06:02:35.259Z,72.55
2023-02-03T06:03:07.973Z,101.07
2023-02-03T06:03:40.262Z,61.13
2023-02-03T06:04:15.066Z,74.65
2023-02-03T06:04:47.440Z,45.40
2023-02-03T06:05:22.661Z,45.88
2023-02-03T06:05:57.283Z,61.75
2023-02-03T06:06:33.913Z,63.67
2023-02-03T06:07:06.113Z,62.25
2023-02-03T06:07:40.923Z,54.50
2023-02-03T06:08:13.081Z,59.40
2023-02-03T06:08:45.281Z,97.82
2023-02-03T06:09:19.956Z,102.60
2023-02-03T06:09:52.189Z,69.30
2023-02-03T06:10:24.513Z,103.25
2023-02-03T06:11:02.819Z,63.13
2023-02-03T06:11:36.029Z,65.60
2023-02-03T06:12:08.271Z,84.72
2023-02-03T06:12:43.179Z,51.63
2023-02-03T06:13:16.697Z,53.75
2023-02-03T06:13:48.914Z,65.63
2023-02-03T06:14:23.741Z,65.60
2023-02-03T06:14:56.029Z,61.63
2023-02-03T06:15:28.191Z,45.88
2023-02-03T06:16:02.905Z,50.63
2023-02-03T06:16:35.051Z,58.60
2023-02-03T06:17:07.262Z,65.32
2023-02-03T06:17:41.953Z,76.93
2023-02-03T06:18:14.057Z,74.50
2023-02-03T06:18:46.209Z,63.42
2023-02-03T06:19:20.852Z,44.67
2023-02-03T06:19:52.944Z,53.78
2023-02-03T06:20:27.988Z,53.03
2023-02-03T06:21:05.544Z,56.53
2023-02-03T06:21:37.725Z,69.18
2023-02-03T06:22:09.823Z,55.72
2023-02-03T06:22:45.032Z,60.75
2023-02-03T06:23:19.115Z,43.88
2023-02-03T06:23:54.769Z,56.97
2023-02-03T06:24:27.128Z,55.13
2023-02-03T06:24:59.243Z,57.80
2023-02-03T06:25:34.409Z,55.92
2023-02-03T06:26:06.568Z,68.65
2023-02-03T06:26:40.943Z,58.70
2023-02-03T06:27:15.734Z,57.60
2023-02-03T06:27:47.999Z,52.90
2023-02-03T06:28:20.404Z,90.97
2023-02-03T06:28:55.219Z,47.92
2023-02-03T06:29:27.317Z,53.97
2023-02-03T06:29:59.467Z,52.17
2023-02-03T06:30:36.974Z,43.13
2023-02-03T06:31:09.284Z,63.80
2023-02-03T06:31:44.129Z,57.38
2023-02-03T06:32:16.352Z,68.35
2023-02-03T06:32:51.226Z,51.15
2023-02-03T06:33:25.914Z,46.92
2023-02-03T06:33:59.608Z,53.08
2023-02-03T06:34:35.513Z,49.40
2023-02-03T06:35:08.759Z,55.88
2023-02-03T06:35:46.234Z,61.97
2023-02-03T06:36:18.373Z,47.10
2023-02-03T06:36:51.183Z,51.33
2023-02-03T06:37:25.943Z,85.68
2023-02-03T06:37:58.072Z,55.15
2023-02-03T06:38:35.388Z,56.08
2023-02-03T06:39:07.473Z,55.65
2023-02-03T06:39:39.714Z,60.03
2023-02-03T06:40:15.918Z,49.55
2023-02-03T06:40:48.166Z,50.00
2023-02-03T06:41:30.694Z,68.03
2023-02-03T06:42:05.497Z,47.75
2023-02-03T06:42:37.628Z,64.28
2023-02-03T06:43:12.279Z,63.97
2023-02-03T06:43:44.388Z,48.83
2023-02-03T06:44:16.585Z,67.82
2023-02-03T06:44:51.229Z,67.65
2023-02-03T06:45:25.080Z,53.10
2023-02-03T06:45:59.933Z,128.07
2023-02-03T06:46:32.681Z,59.42
2023-02-03T06:47:05.085Z,86.35
2023-02-03T06:47:42.606Z,60.17
2023-02-03T06:48:15.285Z,111.03
2023-02-03T06:48:49.519Z,83.63
2023-02-03T06:49:24.248Z,68.93
2023-02-03T06:49:56.434Z,80.97
2023-02-03T06:50:30.115Z,51.92
2023-02-03T06:51:08.266Z,71.68
2023-02-03T06:51:42.826Z,43.45
2023-02-03T06:52:15.644Z,77.20
2023-02-03T06:52:54.360Z,91.95
2023-02-03T06:53:29.347Z,65.78
2023-02-03T06:54:03.579Z,59.75
2023-02-03T06:54:38.248Z,83.75
2023-02-03T06:55:11.023Z,91.30
2023-02-03T06:55:43.266Z,109.97
2023-02-03T06:56:17.946Z,104.47
2023-02-03T06:56:50.114Z,89.30
2023-02-03T06:57:24.747Z,66.82
2023-02-03T06:57:56.860Z,76.85
2023-02-03T06:58:29.287Z,76.55
2023-02-03T06:59:03.965Z,72.03
2023-02-03T06:59:38.920Z,35.50
2023-02-03T07:00:15.061Z,68.18
2023-02-03T07:00:51.611Z,46.72
2023-02-03T07:01:26.055Z,24.35
2023-02-03T07:01:58.264Z,37.08
2023-02-03T07:02:33.028Z,40.75
2023-02-03T07:03:05.411Z,32.80
2023-02-03T07:03:37.531Z,53.67
2023-02-03T07:04:12.335Z,29.35
2023-02-03T07:04:45.282Z,51.05
2023-02-03T07:05:17.573Z,73.70
2023-02-03T07:05:55.032Z,58.95
2023-02-03T07:06:33.906Z,71.75
2023-02-03T07:07:06.363Z,48.90
2023-02-03T07:07:40.999Z,45.72
2023-02-03T07:08:13.167Z,40.67
2023-02-03T07:08:45.254Z,31.40
2023-02-03T07:09:19.915Z,48.90
2023-02-03T07:09:52.334Z,32.35
2023-02-03T07:10:27.303Z,26.13
2023-02-03T07:10:59.794Z,44.22
2023-02-03T07:11:32.342Z,23.38
2023-02-03T07:12:07.612Z,52.75
2023-02-03T07:12:39.783Z,43.55
2023-02-03T07:13:12.120Z,30.77
2023-02-03T07:13:46.818Z,72.60
2023-02-03T07:14:19.168Z,54.90
2023-02-03T07:14:53.867Z,77.15
2023-02-03T07:15:29.106Z,32.42
2023-02-03T07:16:03.917Z,42.78
2023-02-03T07:16:37.628Z,28.10
2023-02-03T07:17:12.419Z,51.83
2023-02-03T07:17:54.428Z,55.50
2023-02-03T07:18:46.215Z,37.55
2023-02-03T07:19:19.252Z,36.90
2023-02-03T07:19:53.974Z,37.78
2023-02-03T07:20:30.118Z,43.63
2023-02-03T07:21:07.709Z,46.00
2023-02-03T07:21:42.368Z,52.90
2023-02-03T07:22:17.062Z,35.17
2023-02-03T07:22:52.972Z,39.30
2023-02-03T07:23:27.692Z,27.92
2023-02-03T07:23:59.920Z,51.28
2023-02-03T07:24:34.601Z,44.25
2023-02-03T07:25:07.556Z,44.65
2023-02-03T07:25:42.017Z,39.97
2023-02-03T07:26:17.003Z,30.15
2023-02-03T07:26:49.328Z,30.73
2023-02-03T07:27:23.972Z,23.80
2023-02-03T07:27:56.166Z,32.80
2023-02-03T07:28:28.252Z,23.25
2023-02-03T07:29:02.926Z,44.28
2023-02-03T07:29:35.134Z,45.08
2023-02-03T07:30:11.627Z,34.13
2023-02-03T07:30:43.903Z,36.50
2023-02-03T07:31:16.397Z,51.47
2023-02-03T07:31:54.554Z,35.75
2023-02-03T07:32:26.864Z,54.50
2023-02-03T07:33:01.525Z,56.28
2023-02-03T07:33:33.684Z,22.45
2023-02-03T07:34:06.498Z,36.45
2023-02-03T07:34:41.206Z,32.95
2023-02-03T07:35:13.353Z,29.73
2023-02-03T07:35:54.774Z,63.90
2023-02-03T07:36:28.959Z,35.75
2023-02-03T07:37:06.423Z,27.95